sensor_id;sensor_type;location;lat;lon;timestamp;P1;durP1;ratioP1;P2;durP2;ratioP2
78968;SDS011;68369;51.050;17.018;2023-03-19T00:03:22;29.10;;;13.90;;
78968;SDS011;68369;51.050;17.018;2023-03-19T00:06:08;28.30;;;13.00;;
78968;SDS011;68369;51.050;17.018;2023-03-19T00:08:54;24.80;;;12.80;;
78968;SDS011;68369;51.050;17.018;2023-03-19T00:11:48;22.60;;;11.20;;
78968;SDS011;68369;51.050;17.018;2023-03-19T00:14:34;21.50;;;10.40;;
78968;SDS011;68369;51.050;17.018;2023-03-19T00:17:20;18.40;;;9.30;;
78968;SDS011;68369;51.050;17.018;2023-03-19T00:20:08;18.10;;;9.00;;
78968;SDS011;68369;51.050;17.018;2023-03-19T00:22:59;18.90;;;8.60;;
78968;SDS011;68369;51.050;17.018;2023-03-19T00:25:45;19.50;;;9.30;;
78968;SDS011;68369;51.050;17.018;2023-03-19T00:28:33;19.90;;;8.50;;
78968;SDS011;68369;51.050;17.018;2023-03-19T00:31:22;20.00;;;8.70;;
78968;SDS011;68369;51.050;17.018;2023-03-19T00:34:28;19.10;;;8.10;;
78968;SDS011;68369;51.050;17.018;2023-03-19T00:37:14;18.90;;;7.80;;
78968;SDS011;68369;51.050;17.018;2023-03-19T00:40:03;16.50;;;8.70;;
78968;SDS011;68369;51.050;17.018;2023-03-19T00:42:50;18.60;;;8.90;;
78968;SDS011;68369;51.050;17.018;2023-03-19T00:45:39;16.10;;;8.30;;
78968;SDS011;68369;51.050;17.018;2023-03-19T00:48:26;16.00;;;7.90;;
78968;SDS011;68369;51.050;17.018;2023-03-19T00:51:12;17.50;;;8.20;;
78968;SDS011;68369;51.050;17.018;2023-03-19T00:53:57;13.70;;;6.30;;
78968;SDS011;68369;51.050;17.018;2023-03-19T00:56:43;13.70;;;7.80;;
78968;SDS011;68369;51.050;17.018;2023-03-19T00:59:28;18.50;;;8.60;;
78968;SDS011;68369;51.050;17.018;2023-03-19T01:04:59;19.00;;;8.80;;
78968;SDS011;68369;51.050;17.018;2023-03-19T01:07:44;19.00;;;9.20;;
78968;SDS011;68369;51.050;17.018;2023-03-19T01:19:40;21.30;;;9.40;;
78968;SDS011;68369;51.050;17.018;2023-03-19T01:22:26;22.10;;;8.90;;
78968;SDS011;68369;51.050;17.018;2023-03-19T01:25:12;20.80;;;9.10;;
78968;SDS011;68369;51.050;17.018;2023-03-19T01:28:00;20.10;;;10.10;;
78968;SDS011;68369;51.050;17.018;2023-03-19T01:30:45;18.90;;;9.60;;
78968;SDS011;68369;51.050;17.018;2023-03-19T01:33:31;24.10;;;10.30;;
78968;SDS011;68369;51.050;17.018;2023-03-19T01:36:18;22.30;;;9.70;;
78968;SDS011;68369;51.050;17.018;2023-03-19T01:42:20;20.10;;;8.90;;
78968;SDS011;68369;51.050;17.018;2023-03-19T01:45:27;19.90;;;9.80;;
78968;SDS011;68369;51.050;17.018;2023-03-19T01:48:26;19.00;;;8.40;;
78968;SDS011;68369;51.050;17.018;2023-03-19T01:57:41;17.30;;;9.30;;
78968;SDS011;68369;51.050;17.018;2023-03-19T02:00:27;19.50;;;9.70;;
78968;SDS011;68369;51.050;17.018;2023-03-19T02:03:37;20.60;;;9.70;;
78968;SDS011;68369;51.050;17.018;2023-03-19T02:06:24;21.80;;;9.60;;
78968;SDS011;68369;51.050;17.018;2023-03-19T02:09:13;18.60;;;10.20;;
78968;SDS011;68369;51.050;17.018;2023-03-19T02:12:00;21.40;;;10.60;;
78968;SDS011;68369;51.050;17.018;2023-03-19T02:14:47;15.90;;;8.40;;
78968;SDS011;68369;51.050;17.018;2023-03-19T02:29:48;18.90;;;8.90;;
78968;SDS011;68369;51.050;17.018;2023-03-19T02:32:34;22.40;;;10.20;;
78968;SDS011;68369;51.050;17.018;2023-03-19T02:35:22;23.70;;;10.20;;
78968;SDS011;68369;51.050;17.018;2023-03-19T02:38:07;20.00;;;9.40;;
78968;SDS011;68369;51.050;17.018;2023-03-19T02:40:59;23.50;;;10.40;;
78968;SDS011;68369;51.050;17.018;2023-03-19T02:43:51;21.20;;;10.20;;
78968;SDS011;68369;51.050;17.018;2023-03-19T02:46:42;23.30;;;10.70;;
78968;SDS011;68369;51.050;17.018;2023-03-19T02:49:28;25.90;;;11.70;;
78968;SDS011;68369;51.050;17.018;2023-03-19T02:52:14;26.00;;;13.70;;
78968;SDS011;68369;51.050;17.018;2023-03-19T02:55:02;24.20;;;11.90;;
78968;SDS011;68369;51.050;17.018;2023-03-19T02:57:48;24.10;;;12.70;;
78968;SDS011;68369;51.050;17.018;2023-03-19T03:00:35;27.40;;;14.30;;
78968;SDS011;68369;51.050;17.018;2023-03-19T03:03:22;25.90;;;13.40;;
78968;SDS011;68369;51.050;17.018;2023-03-19T03:06:07;25.30;;;12.70;;
78968;SDS011;68369;51.050;17.018;2023-03-19T03:08:53;25.00;;;11.50;;
78968;SDS011;68369;51.050;17.018;2023-03-19T03:11:39;20.20;;;11.40;;
78968;SDS011;68369;51.050;17.018;2023-03-19T03:14:27;24.50;;;11.30;;
78968;SDS011;68369;51.050;17.018;2023-03-19T03:17:14;23.70;;;11.30;;
78968;SDS011;68369;51.050;17.018;2023-03-19T03:20:00;22.00;;;10.10;;
78968;SDS011;68369;51.050;17.018;2023-03-19T03:22:46;22.80;;;12.00;;
78968;SDS011;68369;51.050;17.018;2023-03-19T03:25:34;26.60;;;11.90;;
78968;SDS011;68369;51.050;17.018;2023-03-19T03:28:21;22.20;;;11.30;;
78968;SDS011;68369;51.050;17.018;2023-03-19T03:31:08;19.50;;;9.00;;
78968;SDS011;68369;51.050;17.018;2023-03-19T03:33:53;21.80;;;10.50;;
78968;SDS011;68369;51.050;17.018;2023-03-19T03:36:38;23.50;;;11.30;;
78968;SDS011;68369;51.050;17.018;2023-03-19T03:39:24;21.80;;;10.70;;
78968;SDS011;68369;51.050;17.018;2023-03-19T03:42:09;22.90;;;11.10;;
78968;SDS011;68369;51.050;17.018;2023-03-19T03:44:56;19.10;;;9.50;;
78968;SDS011;68369;51.050;17.018;2023-03-19T03:47:41;22.10;;;10.50;;
78968;SDS011;68369;51.050;17.018;2023-03-19T03:50:26;22.00;;;9.90;;
78968;SDS011;68369;51.050;17.018;2023-03-19T03:53:12;20.90;;;10.30;;
78968;SDS011;68369;51.050;17.018;2023-03-19T03:56:00;21.70;;;10.40;;
78968;SDS011;68369;51.050;17.018;2023-03-19T03:58:48;19.80;;;9.50;;
78968;SDS011;68369;51.050;17.018;2023-03-19T04:01:34;22.20;;;10.30;;
78968;SDS011;68369;51.050;17.018;2023-03-19T04:04:22;19.10;;;10.10;;
78968;SDS011;68369;51.050;17.018;2023-03-19T04:07:08;23.10;;;10.50;;
78968;SDS011;68369;51.050;17.018;2023-03-19T04:09:55;20.60;;;9.80;;
78968;SDS011;68369;51.050;17.018;2023-03-19T04:12:40;23.90;;;11.10;;
78968;SDS011;68369;51.050;17.018;2023-03-19T04:15:26;23.50;;;11.60;;
78968;SDS011;68369;51.050;17.018;2023-03-19T04:18:11;24.30;;;11.70;;
78968;SDS011;68369;51.050;17.018;2023-03-19T04:20:57;22.70;;;9.90;;
78968;SDS011;68369;51.050;17.018;2023-03-19T04:23:43;24.90;;;12.30;;
78968;SDS011;68369;51.050;17.018;2023-03-19T04:26:28;26.50;;;13.50;;
78968;SDS011;68369;51.050;17.018;2023-03-19T04:29:14;25.40;;;12.00;;
78968;SDS011;68369;51.050;17.018;2023-03-19T04:32:01;18.70;;;9.20;;
78968;SDS011;68369;51.050;17.018;2023-03-19T04:34:47;26.10;;;12.40;;
78968;SDS011;68369;51.050;17.018;2023-03-19T04:37:33;26.10;;;12.80;;
78968;SDS011;68369;51.050;17.018;2023-03-19T04:40:19;21.80;;;12.10;;
78968;SDS011;68369;51.050;17.018;2023-03-19T04:43:06;28.70;;;13.20;;
78968;SDS011;68369;51.050;17.018;2023-03-19T04:45:52;28.50;;;12.70;;
78968;SDS011;68369;51.050;17.018;2023-03-19T04:48:38;29.60;;;12.20;;
78968;SDS011;68369;51.050;17.018;2023-03-19T04:51:24;28.40;;;11.90;;
78968;SDS011;68369;51.050;17.018;2023-03-19T04:54:09;24.40;;;11.70;;
78968;SDS011;68369;51.050;17.018;2023-03-19T04:56:55;24.70;;;11.80;;
78968;SDS011;68369;51.050;17.018;2023-03-19T04:59:40;29.80;;;13.30;;
78968;SDS011;68369;51.050;17.018;2023-03-19T05:02:27;31.50;;;13.50;;
78968;SDS011;68369;51.050;17.018;2023-03-19T05:07:58;26.60;;;12.00;;
78968;SDS011;68369;51.050;17.018;2023-03-19T05:10:43;26.50;;;12.60;;
78968;SDS011;68369;51.050;17.018;2023-03-19T05:13:29;27.00;;;12.60;;
78968;SDS011;68369;51.050;17.018;2023-03-19T05:16:14;25.20;;;12.70;;
78968;SDS011;68369;51.050;17.018;2023-03-19T05:19:00;26.60;;;11.90;;
78968;SDS011;68369;51.050;17.018;2023-03-19T05:24:32;32.60;;;15.70;;
78968;SDS011;68369;51.050;17.018;2023-03-19T05:27:18;29.10;;;15.20;;
78968;SDS011;68369;51.050;17.018;2023-03-19T05:30:04;26.10;;;12.30;;
78968;SDS011;68369;51.050;17.018;2023-03-19T05:32:51;19.60;;;9.50;;
78968;SDS011;68369;51.050;17.018;2023-03-19T05:35:41;24.60;;;11.20;;
78968;SDS011;68369;51.050;17.018;2023-03-19T05:38:27;23.90;;;11.30;;
78968;SDS011;68369;51.050;17.018;2023-03-19T05:41:15;23.00;;;11.10;;
78968;SDS011;68369;51.050;17.018;2023-03-19T05:44:01;20.60;;;10.40;;
78968;SDS011;68369;51.050;17.018;2023-03-19T05:46:46;26.10;;;11.80;;
78968;SDS011;68369;51.050;17.018;2023-03-19T05:49:33;21.80;;;11.00;;
78968;SDS011;68369;51.050;17.018;2023-03-19T05:52:18;26.30;;;11.20;;
78968;SDS011;68369;51.050;17.018;2023-03-19T05:58:23;25.10;;;11.00;;
78968;SDS011;68369;51.050;17.018;2023-03-19T06:01:10;20.50;;;11.20;;
78968;SDS011;68369;51.050;17.018;2023-03-19T06:06:34;22.10;;;11.10;;
78968;SDS011;68369;51.050;17.018;2023-03-19T06:12:13;22.40;;;11.40;;
78968;SDS011;68369;51.050;17.018;2023-03-19T06:21:15;22.10;;;11.20;;
78968;SDS011;68369;51.050;17.018;2023-03-19T06:24:01;22.10;;;10.90;;
78968;SDS011;68369;51.050;17.018;2023-03-19T06:40:00;25.20;;;11.60;;
78968;SDS011;68369;51.050;17.018;2023-03-19T06:46:00;22.40;;;10.30;;
78968;SDS011;68369;51.050;17.018;2023-03-19T07:02:08;21.50;;;10.40;;
78968;SDS011;68369;51.050;17.018;2023-03-19T07:20:53;20.00;;;9.70;;
78968;SDS011;68369;51.050;17.018;2023-03-19T07:23:43;20.70;;;10.50;;
78968;SDS011;68369;51.050;17.018;2023-03-19T07:27:06;18.60;;;9.80;;
78968;SDS011;68369;51.050;17.018;2023-03-19T07:30:08;19.70;;;10.70;;
78968;SDS011;68369;51.050;17.018;2023-03-19T07:32:59;19.20;;;10.60;;
78968;SDS011;68369;51.050;17.018;2023-03-19T07:35:45;19.40;;;10.70;;
78968;SDS011;68369;51.050;17.018;2023-03-19T07:38:30;16.10;;;8.40;;
78968;SDS011;68369;51.050;17.018;2023-03-19T07:41:15;18.60;;;9.40;;
78968;SDS011;68369;51.050;17.018;2023-03-19T07:44:00;16.30;;;9.20;;
78968;SDS011;68369;51.050;17.018;2023-03-19T07:46:46;19.20;;;11.00;;
78968;SDS011;68369;51.050;17.018;2023-03-19T07:49:31;17.30;;;9.70;;
78968;SDS011;68369;51.050;17.018;2023-03-19T07:52:17;18.40;;;10.00;;
78968;SDS011;68369;51.050;17.018;2023-03-19T07:55:03;17.30;;;10.10;;
78968;SDS011;68369;51.050;17.018;2023-03-19T07:57:48;14.70;;;8.90;;
78968;SDS011;68369;51.050;17.018;2023-03-19T08:00:33;17.30;;;10.50;;
78968;SDS011;68369;51.050;17.018;2023-03-19T08:03:19;18.10;;;9.90;;
78968;SDS011;68369;51.050;17.018;2023-03-19T08:06:05;18.50;;;9.90;;
78968;SDS011;68369;51.050;17.018;2023-03-19T08:08:50;16.80;;;10.20;;
78968;SDS011;68369;51.050;17.018;2023-03-19T08:11:35;17.60;;;10.10;;
78968;SDS011;68369;51.050;17.018;2023-03-19T08:14:21;16.80;;;9.80;;
78968;SDS011;68369;51.050;17.018;2023-03-19T08:17:07;16.50;;;9.50;;
78968;SDS011;68369;51.050;17.018;2023-03-19T08:19:52;15.80;;;9.30;;
78968;SDS011;68369;51.050;17.018;2023-03-19T08:25:46;14.50;;;8.70;;
78968;SDS011;68369;51.050;17.018;2023-03-19T08:28:37;14.00;;;8.80;;
78968;SDS011;68369;51.050;17.018;2023-03-19T08:31:22;15.20;;;7.80;;
78968;SDS011;68369;51.050;17.018;2023-03-19T08:34:08;17.30;;;10.10;;
78968;SDS011;68369;51.050;17.018;2023-03-19T08:39:33;16.20;;;9.30;;
78968;SDS011;68369;51.050;17.018;2023-03-19T08:42:23;12.70;;;7.70;;
78968;SDS011;68369;51.050;17.018;2023-03-19T08:45:09;14.90;;;8.80;;
78968;SDS011;68369;51.050;17.018;2023-03-19T08:50:37;12.90;;;8.10;;
78968;SDS011;68369;51.050;17.018;2023-03-19T08:53:23;10.50;;;6.80;;
78968;SDS011;68369;51.050;17.018;2023-03-19T09:02:41;8.90;;;6.00;;
78968;SDS011;68369;51.050;17.018;2023-03-19T09:15:14;7.00;;;4.00;;
78968;SDS011;68369;51.050;17.018;2023-03-19T09:37:09;9.00;;;5.30;;
78968;SDS011;68369;51.050;17.018;2023-03-19T09:49:23;7.80;;;5.00;;
78968;SDS011;68369;51.050;17.018;2023-03-19T11:39:26;8.30;;;5.60;;
78968;SDS011;68369;51.050;17.018;2023-03-19T12:58:50;11.20;;;7.00;;
78968;SDS011;68369;51.050;17.018;2023-03-19T14:29:06;7.10;;;4.80;;
78968;SDS011;68369;51.050;17.018;2023-03-19T14:44:38;7.90;;;4.40;;
78968;SDS011;68369;51.050;17.018;2023-03-19T15:03:02;7.10;;;4.70;;
78968;SDS011;68369;51.050;17.018;2023-03-19T15:05:48;6.50;;;4.30;;
78968;SDS011;68369;51.050;17.018;2023-03-19T15:41:50;10.80;;;6.50;;
78968;SDS011;68369;51.050;17.018;2023-03-19T15:44:40;10.50;;;6.50;;
78968;SDS011;68369;51.050;17.018;2023-03-19T16:09:49;10.80;;;5.90;;
78968;SDS011;68369;51.050;17.018;2023-03-19T16:46:11;13.10;;;6.10;;
78968;SDS011;68369;51.050;17.018;2023-03-19T16:48:59;13.70;;;6.60;;
78968;SDS011;68369;51.050;17.018;2023-03-19T16:51:44;14.30;;;6.80;;
78968;SDS011;68369;51.050;17.018;2023-03-19T16:54:30;14.30;;;6.80;;
78968;SDS011;68369;51.050;17.018;2023-03-19T16:57:16;12.30;;;6.60;;
78968;SDS011;68369;51.050;17.018;2023-03-19T17:03:17;12.20;;;6.90;;
78968;SDS011;68369;51.050;17.018;2023-03-19T17:06:04;13.10;;;6.80;;
78968;SDS011;68369;51.050;17.018;2023-03-19T17:12:04;12.40;;;7.30;;
78968;SDS011;68369;51.050;17.018;2023-03-19T17:48:43;17.90;;;9.40;;
78968;SDS011;68369;51.050;17.018;2023-03-19T17:54:35;18.90;;;10.50;;
78968;SDS011;68369;51.050;17.018;2023-03-19T18:07:33;22.80;;;12.60;;
78968;SDS011;68369;51.050;17.018;2023-03-19T18:10:20;26.30;;;12.20;;
78968;SDS011;68369;51.050;17.018;2023-03-19T18:29:09;30.40;;;16.30;;
78968;SDS011;68369;51.050;17.018;2023-03-19T18:31:54;32.10;;;16.70;;
78968;SDS011;68369;51.050;17.018;2023-03-19T18:41:05;40.90;;;23.30;;
78968;SDS011;68369;51.050;17.018;2023-03-19T18:50:31;45.90;;;24.80;;
78968;SDS011;68369;51.050;17.018;2023-03-19T18:53:17;42.90;;;25.20;;
78968;SDS011;68369;51.050;17.018;2023-03-19T18:56:03;47.30;;;24.40;;
78968;SDS011;68369;51.050;17.018;2023-03-19T18:59:04;48.80;;;26.40;;
78968;SDS011;68369;51.050;17.018;2023-03-19T19:05:08;49.90;;;25.30;;
78968;SDS011;68369;51.050;17.018;2023-03-19T19:08:01;40.40;;;23.00;;
78968;SDS011;68369;51.050;17.018;2023-03-19T19:10:48;43.40;;;23.00;;
78968;SDS011;68369;51.050;17.018;2023-03-19T19:13:36;48.30;;;23.80;;
78968;SDS011;68369;51.050;17.018;2023-03-19T19:16:39;46.40;;;22.00;;
78968;SDS011;68369;51.050;17.018;2023-03-19T19:19:25;39.80;;;22.30;;
78968;SDS011;68369;51.050;17.018;2023-03-19T19:22:12;36.90;;;20.80;;
78968;SDS011;68369;51.050;17.018;2023-03-19T19:25:02;41.60;;;21.20;;
78968;SDS011;68369;51.050;17.018;2023-03-19T19:27:49;42.80;;;20.70;;
78968;SDS011;68369;51.050;17.018;2023-03-19T19:30:41;34.20;;;19.70;;
78968;SDS011;68369;51.050;17.018;2023-03-19T19:49:33;40.50;;;22.10;;
78968;SDS011;68369;51.050;17.018;2023-03-19T20:01:27;38.50;;;21.70;;
78968;SDS011;68369;51.050;17.018;2023-03-19T20:04:13;35.90;;;20.80;;
78968;SDS011;68369;51.050;17.018;2023-03-19T20:10:10;39.90;;;21.30;;
78968;SDS011;68369;51.050;17.018;2023-03-19T20:12:57;37.50;;;21.50;;
78968;SDS011;68369;51.050;17.018;2023-03-19T20:28:46;45.00;;;23.70;;
78968;SDS011;68369;51.050;17.018;2023-03-19T20:38:09;49.30;;;24.10;;
78968;SDS011;68369;51.050;17.018;2023-03-19T20:40:55;57.30;;;26.40;;
78968;SDS011;68369;51.050;17.018;2023-03-19T20:43:42;53.80;;;26.80;;
78968;SDS011;68369;51.050;17.018;2023-03-19T20:52:21;51.10;;;25.60;;
78968;SDS011;68369;51.050;17.018;2023-03-19T20:58:08;41.30;;;23.10;;
78968;SDS011;68369;51.050;17.018;2023-03-19T21:01:01;45.10;;;22.80;;
78968;SDS011;68369;51.050;17.018;2023-03-19T21:03:47;39.50;;;20.20;;
78968;SDS011;68369;51.050;17.018;2023-03-19T21:49:05;47.40;;;22.40;;
78968;SDS011;68369;51.050;17.018;2023-03-19T21:55:19;44.00;;;23.40;;
78968;SDS011;68369;51.050;17.018;2023-03-19T22:16:28;43.80;;;22.20;;
78968;SDS011;68369;51.050;17.018;2023-03-19T22:19:16;41.60;;;21.70;;
78968;SDS011;68369;51.050;17.018;2023-03-19T22:22:05;44.50;;;22.30;;
78968;SDS011;68369;51.050;17.018;2023-03-19T22:27:45;40.50;;;21.10;;
78968;SDS011;68369;51.050;17.018;2023-03-19T22:30:36;42.20;;;21.50;;
78968;SDS011;68369;51.050;17.018;2023-03-19T23:34:11;41.10;;;20.60;;
78968;SDS011;68369;51.050;17.018;2023-03-19T23:40:12;32.40;;;18.40;;
